Airfield :







YOU CAN JOIN US ON...

 
LOGIN :

Register | Disclaimer

   EN    FR    IT 

 









Legend :    VFR   Marginal VFR   IFR   Intensive IFR   Very Intensive IFR
Visi :
Ceiling :
>= 8 km
>= 3000ft
5 to 8 km
1000 to 3000 ft
1500m to 5 km
500 to 1000 ft
800 to 1500m
200 to 500 ft
< 800m
< 200 ft
Symbols :   Thunderstorms  Fog  Heavy snow  Heavy precipitations  Wind > 20 kt






- Airport Elevation : 626 ft


KCAR - Caribou Municipal

CURRENT METAR :
  • 161854Z AUTO 16010KT 10SM CLR 14/02 A2994 RMK AO2 SLP147 T01440017

EXPIRED METARs :
  • 161754Z AUTO 17005KT 10SM CLR 14/02 A2997 RMK AO2 SLP157 T01390017 10139 20022 56025
  • 161654Z AUTO 16005KT 10SM CLR 13/02 A2999 RMK AO2 SLP163 T01330017

TAF KCAR
Valid from the 16 at 18:00 until the 17 at 18:00 UTC


161733Z 1618/1718 17008KT P6SM BKN200
FM171000 08011KT P6SM VCSH OVC050
FM171200 07013G21KT 5SM -RA OVC045
FM171400 07018G31KT 2SM RA OVC010 WS020/07045KT



MET'MAP, your aeronautical weather chart ! - Copyright ORBIFLY December 2007 - Disclaimer

ORBIFLY MET'MAP TEAM :

Programming & Development : Alexandra Zaïnal
Concept & Development : Baudouin d'Aumeries
Co-Development & Prog : Marc-Olivier Méhu
Technical & hardware support : Manuel Goepfert

Contact : metmap@orbifly.com




SOURCES & CREDITS :

   NOAA